createdAt,value
2022-10-09T00:01:15.317Z,100404.09
2022-10-09T00:03:46.037Z,100405.72
2022-10-09T00:06:18.005Z,100409.22
2022-10-09T00:08:46.404Z,100403.00
2022-10-09T00:11:17.334Z,100400.22
2022-10-09T00:13:45.336Z,100399.47
2022-10-09T00:16:15.301Z,100396.03
2022-10-09T00:18:43.490Z,100394.59
2022-10-09T00:21:20.268Z,100398.47
2022-10-09T00:23:48.838Z,100397.06
2022-10-09T00:26:16.912Z,100400.94
2022-10-09T00:28:45.475Z,100400.03
2022-10-09T00:31:14.270Z,100385.47
2022-10-09T00:33:42.752Z,100384.53
2022-10-09T00:36:13.263Z,100379.25
2022-10-09T00:38:42.815Z,100379.25
2022-10-09T00:41:15.445Z,100379.13
2022-10-09T00:43:49.391Z,100372.91
2022-10-09T00:46:24.784Z,100371.06
2022-10-09T00:49:00.126Z,100376.47
2022-10-09T00:51:29.829Z,100369.41
2022-10-09T00:54:00.154Z,100362.53
2022-10-09T00:56:29.250Z,100357.00
2022-10-09T00:58:59.998Z,100353.06
2022-10-09T01:01:28.398Z,100363.78
2022-10-09T01:03:56.453Z,100362.91
2022-10-09T01:06:31.630Z,100355.84
2022-10-09T01:09:06.546Z,100352.56
2022-10-09T01:11:40.835Z,100346.50
2022-10-09T01:14:19.852Z,100348.59
2022-10-09T01:16:57.740Z,100345.88
2022-10-09T01:19:42.505Z,100342.31
2022-10-09T01:22:22.800Z,100345.75
2022-10-09T01:24:56.808Z,100344.31
2022-10-09T01:27:28.144Z,100359.31
2022-10-09T01:30:00.202Z,100354.13
2022-10-09T01:32:32.746Z,100361.88
2022-10-09T01:35:01.679Z,100351.19
2022-10-09T01:37:32.129Z,100348.53
2022-10-09T01:40:01.156Z,100351.03
2022-10-09T01:42:31.292Z,100346.53
2022-10-09T01:44:59.477Z,100355.38
2022-10-09T01:47:27.623Z,100354.13
2022-10-09T01:50:01.271Z,100362.06
2022-10-09T01:52:44.911Z,100359.00
2022-10-09T01:55:35.935Z,100354.41
2022-10-09T01:58:12.026Z,100353.81
2022-10-09T02:00:45.447Z,100359.22
2022-10-09T02:03:16.780Z,100354.91
2022-10-09T02:05:47.033Z,100358.56
2022-10-09T02:08:19.307Z,100360.31
2022-10-09T02:10:49.884Z,100360.16
2022-10-09T02:13:19.643Z,100360.72
2022-10-09T02:15:51.243Z,100367.16
2022-10-09T02:18:24.355Z,100367.47
2022-10-09T02:20:56.877Z,100365.06
2022-10-09T02:23:26.696Z,100375.88
2022-10-09T02:25:55.051Z,100374.34
2022-10-09T02:28:24.697Z,100375.38
2022-10-09T02:30:59.369Z,100375.38
2022-10-09T02:33:33.471Z,100373.22
2022-10-09T02:36:02.071Z,100374.44
2022-10-09T02:38:30.551Z,100380.19
2022-10-09T02:41:00.114Z,100382.75
2022-10-09T02:43:30.084Z,100389.19
2022-10-09T02:45:58.313Z,100394.47
2022-10-09T02:48:26.388Z,100390.00
2022-10-09T02:50:54.389Z,100393.75
2022-10-09T02:53:22.379Z,100398.25
2022-10-09T02:55:50.382Z,100399.09
2022-10-09T02:58:18.379Z,100400.31
2022-10-09T03:00:50.919Z,100406.44
2022-10-09T03:03:19.729Z,100400.50
2022-10-09T03:05:48.399Z,100403.13
2022-10-09T03:08:16.387Z,100408.19
2022-10-09T03:10:44.336Z,100401.88
2022-10-09T03:13:12.348Z,100408.59
2022-10-09T03:15:40.423Z,100402.09
2022-10-09T03:18:09.833Z,100407.38
2022-10-09T03:20:39.124Z,100401.16
2022-10-09T03:23:07.214Z,100408.13
2022-10-09T03:25:35.182Z,100410.78
2022-10-09T03:28:03.316Z,100414.34
2022-10-09T03:30:31.375Z,100406.59
2022-10-09T03:32:59.346Z,100413.56
2022-10-09T03:35:28.723Z,100412.72
2022-10-09T03:37:56.675Z,100408.28
2022-10-09T03:40:24.679Z,100411.72
2022-10-09T03:42:52.690Z,100404.56
2022-10-09T03:45:20.718Z,100406.25
2022-10-09T03:47:48.674Z,100416.81
2022-10-09T03:50:16.834Z,100422.09
2022-10-09T03:52:46.437Z,100423.72
2022-10-09T03:55:15.394Z,100420.94
2022-10-09T03:57:43.410Z,100422.66
2022-10-09T04:00:12.755Z,100422.56
2022-10-09T04:02:40.817Z,100437.00
2022-10-09T04:05:09.984Z,100440.13
2022-10-09T04:07:37.999Z,100430.16
2022-10-09T04:10:08.167Z,100431.03
2022-10-09T04:12:36.189Z,100412.59
2022-10-09T04:15:04.740Z,100407.06
2022-10-09T04:17:32.745Z,100413.47
2022-10-09T04:20:00.857Z,100407.75
2022-10-09T04:22:28.814Z,100411.34
2022-10-09T04:24:56.796Z,100409.47
2022-10-09T04:27:26.272Z,100415.69
2022-10-09T04:29:54.390Z,100433.13
2022-10-09T04:32:22.363Z,100431.97
2022-10-09T04:34:50.361Z,100427.97
2022-10-09T04:37:18.333Z,100425.69
2022-10-09T04:39:46.379Z,100438.13
2022-10-09T04:42:14.312Z,100439.59
2022-10-09T04:44:43.701Z,100448.69
2022-10-09T04:47:11.682Z,100450.38
2022-10-09T04:49:39.892Z,100454.19
2022-10-09T04:52:09.486Z,100463.09
2022-10-09T04:54:37.442Z,100469.03
2022-10-09T04:57:05.593Z,100475.38
2022-10-09T04:59:33.626Z,100483.75
2022-10-09T05:02:03.043Z,100469.59
2022-10-09T05:04:31.225Z,100491.09
2022-10-09T05:06:59.201Z,100482.56
2022-10-09T05:09:27.205Z,100468.19
2022-10-09T05:11:55.370Z,100465.13
2022-10-09T05:14:23.494Z,100453.38
2022-10-09T05:17:12.477Z,100460.69
2022-10-09T05:19:41.941Z,100464.03
2022-10-09T05:22:09.989Z,100458.03
2022-10-09T05:24:38.199Z,100454.78
2022-10-09T05:27:06.288Z,100453.03
2022-10-09T05:29:34.406Z,100460.38
2022-10-09T05:32:04.695Z,100485.41
2022-10-09T05:34:32.696Z,100482.81
2022-10-09T05:37:02.345Z,100482.16
2022-10-09T05:39:30.423Z,100479.38
2022-10-09T05:41:58.518Z,100487.53
2022-10-09T05:44:26.534Z,100480.44
2022-10-09T05:46:54.732Z,100492.56
2022-10-09T05:49:22.808Z,100497.91
2022-10-09T05:51:51.072Z,100504.00
2022-10-09T05:54:20.457Z,100504.72
2022-10-09T05:56:48.765Z,100509.19
2022-10-09T05:59:19.930Z,100509.84
2022-10-09T06:01:50.283Z,100513.22
2022-10-09T06:04:20.299Z,100507.72
2022-10-09T06:06:49.199Z,100507.72
2022-10-09T06:09:18.747Z,100513.03
2022-10-09T06:11:48.122Z,100520.88
2022-10-09T06:14:16.101Z,100518.06
2022-10-09T06:16:46.200Z,100528.81
2022-10-09T06:19:15.786Z,100520.97
2022-10-09T06:21:44.974Z,100521.06
2022-10-09T06:24:23.261Z,100521.63
2022-10-09T06:26:56.592Z,100540.13
2022-10-09T06:29:24.712Z,100535.47
2022-10-09T06:31:52.708Z,100537.22
2022-10-09T06:34:20.973Z,100540.19
2022-10-09T06:36:52.152Z,100540.66
2022-10-09T06:39:20.550Z,100540.44
2022-10-09T06:41:48.713Z,100539.38
2022-10-09T06:44:18.477Z,100548.19
2022-10-09T06:46:50.670Z,100550.63
2022-10-09T06:49:18.723Z,100560.41
2022-10-09T06:51:46.742Z,100553.78
2022-10-09T06:54:18.522Z,100565.19
2022-10-09T06:56:46.592Z,100552.28
2022-10-09T06:59:14.850Z,100557.19
2022-10-09T07:01:44.265Z,100561.81
2022-10-09T07:04:19.822Z,100572.66
2022-10-09T07:06:48.849Z,100565.69
2022-10-09T07:09:17.587Z,100572.03
2022-10-09T07:11:49.405Z,100565.97
2022-10-09T07:14:18.114Z,100567.44
2022-10-09T07:16:52.699Z,100572.34
2022-10-09T07:19:21.846Z,100576.03
2022-10-09T07:21:53.216Z,100576.97
2022-10-09T07:24:21.415Z,100590.91
2022-10-09T07:26:50.040Z,100584.88
2022-10-09T07:29:19.891Z,100588.59
2022-10-09T07:31:49.962Z,100582.31
2022-10-09T07:34:17.989Z,100580.66
2022-10-09T07:36:45.965Z,100569.28
2022-10-09T07:39:14.013Z,100592.72
2022-10-09T07:41:41.984Z,100584.03
2022-10-09T07:44:10.433Z,100584.28
2022-10-09T07:46:38.480Z,100572.72
2022-10-09T07:49:38.022Z,100571.69
2022-10-09T07:52:06.134Z,100586.22
2022-10-09T07:54:34.094Z,100587.94
2022-10-09T07:57:02.634Z,100583.34
2022-10-09T07:59:30.628Z,100591.84
2022-10-09T08:01:58.767Z,100583.47
2022-10-09T08:04:28.315Z,100590.88
2022-10-09T08:06:58.447Z,100596.69
2022-10-09T08:09:26.466Z,100593.78
2022-10-09T08:11:54.715Z,100603.47
2022-10-09T08:14:23.268Z,100593.63
2022-10-09T08:16:51.456Z,100595.66
2022-10-09T08:19:19.529Z,100606.81
2022-10-09T08:21:48.963Z,100597.44
2022-10-09T08:24:17.089Z,100605.38
2022-10-09T08:26:45.602Z,100609.03
2022-10-09T08:29:16.233Z,100606.34
2022-10-09T08:31:44.323Z,100611.72
2022-10-09T08:34:13.476Z,100613.66
2022-10-09T08:36:41.664Z,100620.22
2022-10-09T08:39:11.290Z,100618.66
2022-10-09T08:41:44.240Z,100620.09
2022-10-09T08:44:16.703Z,100624.88
2022-10-09T08:46:52.058Z,100631.16
2022-10-09T08:49:26.312Z,100633.09
2022-10-09T08:52:00.786Z,100639.53
2022-10-09T08:54:36.145Z,100639.53
2022-10-09T08:57:07.748Z,100639.06
2022-10-09T08:59:35.843Z,100643.53
2022-10-09T09:02:17.036Z,100645.50
2022-10-09T09:04:55.667Z,100650.13
2022-10-09T09:07:32.455Z,100650.72
2022-10-09T09:10:12.025Z,100658.13
2022-10-09T09:12:50.312Z,100652.03
2022-10-09T09:15:34.434Z,100657.25
2022-10-09T09:18:14.314Z,100650.72
2022-10-09T09:20:49.419Z,100654.72
2022-10-09T09:23:17.633Z,100659.81
2022-10-09T09:25:53.573Z,100666.47
2022-10-09T09:28:27.527Z,100664.69
2022-10-09T09:30:59.731Z,100670.97
2022-10-09T09:33:43.629Z,100670.47
2022-10-09T09:36:21.149Z,100673.75
2022-10-09T09:39:25.236Z,100673.25
2022-10-09T09:41:41.941Z,100671.09
2022-10-09T09:44:12.916Z,100671.78
2022-10-09T09:46:41.433Z,100673.16
2022-10-09T09:49:20.151Z,100677.88
2022-10-09T09:51:50.926Z,100673.31
2022-10-09T09:54:22.935Z,100670.81
2022-10-09T09:57:18.176Z,100670.44
2022-10-09T09:59:46.255Z,100674.88
2022-10-09T10:02:18.489Z,100666.72
2022-10-09T10:04:56.595Z,100673.81
2022-10-09T10:07:32.991Z,100676.22
2022-10-09T10:10:07.656Z,100681.88
2022-10-09T10:12:41.868Z,100682.03
2022-10-09T10:15:20.080Z,100679.59
2022-10-09T10:17:50.044Z,100683.06
2022-10-09T10:20:19.128Z,100683.59
2022-10-09T10:22:53.863Z,100678.16
2022-10-09T10:25:26.431Z,100672.25
2022-10-09T10:28:00.614Z,100680.16
2022-10-09T10:30:29.235Z,100673.19
2022-10-09T10:33:02.998Z,100681.28
2022-10-09T10:35:36.995Z,100674.22
2022-10-09T10:38:13.395Z,100673.22
2022-10-09T10:40:48.699Z,100682.91
2022-10-09T10:43:32.349Z,100678.09
2022-10-09T10:46:05.170Z,100682.84
2022-10-09T10:48:38.123Z,100676.13
2022-10-09T10:51:18.802Z,100675.03
2022-10-09T10:54:00.969Z,100673.88
2022-10-09T10:56:32.024Z,100673.78
2022-10-09T10:59:29.232Z,100668.59
2022-10-09T11:02:16.407Z,100664.38
2022-10-09T11:04:48.980Z,100661.66
2022-10-09T11:07:30.180Z,100663.97
2022-10-09T11:10:04.713Z,100658.16
2022-10-09T11:12:48.220Z,100661.47
2022-10-09T11:15:37.470Z,100654.44
2022-10-09T11:18:21.793Z,100660.84
2022-10-09T11:21:08.812Z,100659.97
2022-10-09T11:23:55.877Z,100656.53
2022-10-09T11:26:32.767Z,100655.38
2022-10-09T11:29:06.622Z,100650.03
2022-10-09T11:31:42.593Z,100649.50
2022-10-09T11:34:15.858Z,100644.53
2022-10-09T11:36:46.030Z,100651.56
2022-10-09T11:39:18.281Z,100655.13
2022-10-09T11:41:48.271Z,100648.09
2022-10-09T11:44:28.822Z,100647.94
2022-10-09T11:47:06.567Z,100652.38
2022-10-09T11:49:47.693Z,100640.75
2022-10-09T11:52:25.402Z,100649.78
2022-10-09T11:54:53.456Z,100642.41
2022-10-09T11:57:29.088Z,100638.97
2022-10-09T12:00:07.194Z,100649.47
2022-10-09T12:02:37.468Z,100642.53
2022-10-09T12:05:18.068Z,100647.16
2022-10-09T12:07:46.875Z,100642.66
2022-10-09T12:10:27.867Z,100640.69
2022-10-09T12:13:01.870Z,100640.56
2022-10-09T12:15:39.753Z,100640.78
2022-10-09T12:18:26.238Z,100636.53
2022-10-09T12:20:55.604Z,100631.19
2022-10-09T12:23:28.523Z,100628.91
2022-10-09T12:25:58.061Z,100634.06
2022-10-09T12:28:30.746Z,100632.84
2022-10-09T12:31:01.599Z,100631.09
2022-10-09T12:33:36.277Z,100639.56
2022-10-09T12:36:07.871Z,100624.66
2022-10-09T12:38:35.851Z,100620.91
2022-10-09T12:41:08.434Z,100624.69
2022-10-09T12:43:36.528Z,100618.16
2022-10-09T12:46:05.843Z,100626.53
2022-10-09T12:48:40.649Z,100611.16
2022-10-09T12:51:17.309Z,100610.59
2022-10-09T12:53:49.582Z,100617.06
2022-10-09T12:56:22.942Z,100611.00
2022-10-09T12:58:52.022Z,100612.41
2022-10-09T13:01:21.303Z,100604.16
2022-10-09T13:03:59.475Z,100609.31
2022-10-09T13:06:32.709Z,100604.81
2022-10-09T13:09:04.117Z,100601.47
2022-10-09T13:11:34.561Z,100605.00
2022-10-09T13:14:03.423Z,100606.53
2022-10-09T13:16:41.624Z,100594.84
2022-10-09T13:19:23.930Z,100594.56
2022-10-09T13:22:08.536Z,100594.69
2022-10-09T13:24:37.020Z,100590.53
2022-10-09T13:27:06.157Z,100588.56
2022-10-09T13:29:34.159Z,100581.78
2022-10-09T13:32:03.076Z,100587.59
2022-10-09T13:34:32.485Z,100594.91
2022-10-09T13:37:00.453Z,100587.72
2022-10-09T13:39:30.444Z,100585.47
2022-10-09T13:42:00.378Z,100585.97
2022-10-09T13:44:28.420Z,100590.06
2022-10-09T13:46:57.274Z,100586.84
2022-10-09T13:49:25.459Z,100580.19
2022-10-09T13:51:54.967Z,100587.06
2022-10-09T13:54:23.229Z,100576.34
2022-10-09T13:56:51.267Z,100572.66
2022-10-09T13:59:19.332Z,100578.34
2022-10-09T14:01:47.583Z,100578.19
2022-10-09T14:04:15.615Z,100580.44
2022-10-09T14:06:43.684Z,100575.34
2022-10-09T14:09:13.059Z,100573.81
2022-10-09T14:11:41.058Z,100574.91
2022-10-09T14:14:09.040Z,100582.53
2022-10-09T14:16:37.040Z,100569.53
2022-10-09T14:19:06.718Z,100579.06
2022-10-09T14:21:34.834Z,100578.22
2022-10-09T14:24:04.347Z,100576.78
2022-10-09T14:26:34.219Z,100578.94
2022-10-09T14:29:04.782Z,100579.66
2022-10-09T14:31:32.796Z,100581.41
2022-10-09T14:34:01.131Z,100572.50
2022-10-09T14:36:29.447Z,100574.13
2022-10-09T14:38:57.484Z,100579.63
2022-10-09T14:41:26.039Z,100579.31
2022-10-09T14:44:00.568Z,100583.38
2022-10-09T14:46:29.828Z,100583.06
2022-10-09T14:48:59.156Z,100585.38
2022-10-09T14:51:28.521Z,100574.59
2022-10-09T14:53:58.519Z,100578.97
2022-10-09T14:56:27.767Z,100582.72
2022-10-09T14:59:00.381Z,100584.91
2022-10-09T15:01:29.397Z,100578.13
2022-10-09T15:03:57.614Z,100587.38
2022-10-09T15:06:25.661Z,100594.91
2022-10-09T15:08:59.236Z,100589.34
2022-10-09T15:11:31.661Z,100594.22
2022-10-09T15:14:01.066Z,100592.16
2022-10-09T15:16:29.236Z,100585.75
2022-10-09T15:18:57.443Z,100590.84
2022-10-09T15:21:27.516Z,100586.00
2022-10-09T15:23:56.759Z,100599.00
2022-10-09T15:26:25.401Z,100595.97
2022-10-09T15:28:53.557Z,100597.19
2022-10-09T15:31:25.664Z,100602.53
2022-10-09T15:33:55.102Z,100603.94
2022-10-09T15:36:24.368Z,100605.72
2022-10-09T15:38:52.368Z,100600.75
2022-10-09T15:41:22.601Z,100609.25
2022-10-09T15:43:50.878Z,100614.81
2022-10-09T15:46:19.054Z,100606.31
2022-10-09T15:48:49.252Z,100602.03
2022-10-09T15:51:18.113Z,100606.75
2022-10-09T15:53:48.428Z,100605.06
2022-10-09T15:56:22.472Z,100608.09
2022-10-09T15:58:50.889Z,100609.91
2022-10-09T16:01:19.781Z,100606.75
2022-10-09T16:03:49.765Z,100612.31
2022-10-09T16:06:19.634Z,100616.28
2022-10-09T16:08:48.614Z,100617.34
2022-10-09T16:11:21.644Z,100619.53
2022-10-09T16:13:59.339Z,100625.56
2022-10-09T16:16:28.670Z,100624.44
2022-10-09T16:18:58.353Z,100628.84
2022-10-09T16:21:29.301Z,100618.47
2022-10-09T16:23:59.618Z,100635.50
2022-10-09T16:26:29.545Z,100641.50
2022-10-09T16:28:57.798Z,100637.34
2022-10-09T16:31:28.264Z,100642.28
2022-10-09T16:33:58.152Z,100653.31
2022-10-09T16:36:26.345Z,100654.72
2022-10-09T16:38:55.183Z,100657.06
2022-10-09T16:41:24.256Z,100658.25
2022-10-09T16:43:54.831Z,100648.66
2022-10-09T16:46:28.813Z,100658.69
2022-10-09T16:48:59.706Z,100663.25
2022-10-09T16:51:30.284Z,100660.06
2022-10-09T16:54:00.615Z,100663.69
2022-10-09T16:56:30.841Z,100665.78
2022-10-09T16:59:00.220Z,100668.97
2022-10-09T17:01:29.049Z,100676.41
2022-10-09T17:03:59.362Z,100681.16
2022-10-09T17:06:28.061Z,100674.63
2022-10-09T17:08:57.813Z,100679.94
2022-10-09T17:11:27.396Z,100685.69
2022-10-09T17:13:56.978Z,100696.16
2022-10-09T17:16:29.869Z,100683.88
2022-10-09T17:19:00.268Z,100697.91
2022-10-09T17:21:33.003Z,100698.50
2022-10-09T17:24:04.848Z,100695.31
2022-10-09T17:26:32.961Z,100699.22
2022-10-09T17:29:03.466Z,100697.22
2022-10-09T17:31:32.476Z,100686.41
2022-10-09T17:34:04.039Z,100697.59
2022-10-09T17:36:35.027Z,100706.69
2022-10-09T17:39:03.716Z,100695.91
2022-10-09T17:41:32.436Z,100708.41
2022-10-09T17:44:00.838Z,100702.38
2022-10-09T17:46:30.642Z,100711.28
2022-10-09T17:48:59.670Z,100711.06
2022-10-09T17:51:31.269Z,100709.75
2022-10-09T17:54:01.719Z,100713.34
2022-10-09T17:56:30.809Z,100711.19
2022-10-09T17:59:00.256Z,100706.34
2022-10-09T18:01:28.618Z,100708.41
2022-10-09T18:03:57.458Z,100715.88
2022-10-09T18:06:28.399Z,100719.38
2022-10-09T18:08:58.428Z,100712.66
2022-10-09T18:11:30.251Z,100719.00
2022-10-09T18:13:58.401Z,100718.91
2022-10-09T18:16:38.448Z,100711.59
2022-10-09T18:19:12.316Z,100718.81
2022-10-09T18:21:41.968Z,100722.41
2022-10-09T18:24:16.911Z,100716.16
2022-10-09T18:26:45.629Z,100724.09
2022-10-09T18:29:13.649Z,100726.75
2022-10-09T18:31:42.002Z,100730.16
2022-10-09T18:34:11.621Z,100738.13
2022-10-09T18:36:39.857Z,100732.06
2022-10-09T18:39:10.066Z,100743.25
2022-10-09T18:41:42.026Z,100748.66
2022-10-09T18:44:17.715Z,100742.94
2022-10-09T18:46:49.487Z,100746.63
2022-10-09T18:49:20.299Z,100749.38
2022-10-09T18:51:50.544Z,100747.84
2022-10-09T18:54:20.878Z,100744.41
2022-10-09T18:56:50.608Z,100755.69
2022-10-09T18:59:22.103Z,100757.59
2022-10-09T19:01:50.794Z,100754.16
2022-10-09T19:04:19.338Z,100759.97
2022-10-09T19:06:47.511Z,100755.69
2022-10-09T19:09:15.889Z,100755.88
2022-10-09T19:11:46.354Z,100758.53
2022-10-09T19:14:17.779Z,100767.09
2022-10-09T19:16:45.914Z,100771.34
2022-10-09T19:19:13.917Z,100773.88
2022-10-09T19:21:44.580Z,100778.28
2022-10-09T19:24:14.592Z,100770.38
2022-10-09T19:26:42.955Z,100777.41
2022-10-09T19:29:11.430Z,100776.47
2022-10-09T19:31:40.854Z,100778.44
2022-10-09T19:34:09.255Z,100795.44
2022-10-09T19:36:38.048Z,100790.41
2022-10-09T19:39:07.425Z,100787.25
2022-10-09T19:41:35.710Z,100789.41
2022-10-09T19:44:03.745Z,100788.06
2022-10-09T19:46:32.467Z,100805.25
2022-10-09T19:49:02.085Z,100803.53
2022-10-09T19:56:10.747Z,100807.03
2022-10-09T19:58:41.006Z,100807.03
2022-10-09T20:01:17.926Z,100809.09
2022-10-09T20:03:47.300Z,100809.25
2022-10-09T20:06:16.411Z,100816.63
2022-10-09T20:08:45.334Z,100818.88
2022-10-09T20:11:15.297Z,100825.13
2022-10-09T20:13:44.407Z,100816.97
2022-10-09T20:16:14.434Z,100822.25
2022-10-09T20:18:43.613Z,100832.50
2022-10-09T20:21:13.872Z,100831.47
2022-10-09T20:23:42.133Z,100835.78
2022-10-09T20:26:12.769Z,100826.84
2022-10-09T20:28:42.545Z,100828.22
2022-10-09T20:31:14.830Z,100822.72
2022-10-09T20:33:44.117Z,100826.03
2022-10-09T20:36:20.321Z,100834.84
2022-10-09T20:38:48.490Z,100830.81
2022-10-09T20:41:16.722Z,100833.41
2022-10-09T20:43:46.677Z,100842.91
2022-10-09T20:46:15.993Z,100850.47
2022-10-09T20:48:44.459Z,100852.91
2022-10-09T20:51:12.476Z,100844.50
2022-10-09T20:53:40.603Z,100845.59
2022-10-09T20:56:10.723Z,100840.44
2022-10-09T20:58:39.766Z,100838.50
2022-10-09T21:01:10.649Z,100838.13
2022-10-09T21:03:40.177Z,100840.09
2022-10-09T21:06:11.387Z,100847.78
2022-10-09T21:08:39.840Z,100845.56
2022-10-09T21:11:09.370Z,100846.75
2022-10-09T21:13:38.324Z,100851.47
2022-10-09T21:16:08.751Z,100851.94
2022-10-09T21:18:37.466Z,100856.31
2022-10-09T21:21:06.930Z,100851.31
2022-10-09T21:23:35.523Z,100858.03
2022-10-09T21:26:04.283Z,100850.16
2022-10-09T21:28:32.584Z,100845.19
2022-10-09T21:31:00.634Z,100849.47
2022-10-09T21:33:30.042Z,100848.28
2022-10-09T21:35:58.081Z,100859.19
2022-10-09T21:38:26.063Z,100850.63
2022-10-09T21:40:54.034Z,100842.13
2022-10-09T21:43:22.129Z,100843.91
2022-10-09T21:45:51.519Z,100847.41
2022-10-09T21:48:19.682Z,100839.34
2022-10-09T21:50:49.132Z,100846.66
2022-10-09T21:53:17.215Z,100833.53
2022-10-09T21:55:45.231Z,100830.59
2022-10-09T21:58:13.222Z,100833.28
2022-10-09T22:00:41.209Z,100824.81
2022-10-09T22:03:09.184Z,100830.09
2022-10-09T22:05:40.322Z,100828.31
2022-10-09T22:08:09.719Z,100826.72
2022-10-09T22:10:37.720Z,100833.50
2022-10-09T22:13:05.708Z,100837.94
2022-10-09T22:15:33.745Z,100826.72
2022-10-09T22:18:01.705Z,100838.22
2022-10-09T22:20:29.700Z,100834.78
2022-10-09T22:22:57.681Z,100840.94
2022-10-09T22:25:27.073Z,100836.66
2022-10-09T22:27:55.041Z,100838.22
2022-10-09T22:30:23.017Z,100829.25
2022-10-09T22:32:51.292Z,100832.66
2022-10-09T22:35:19.480Z,100826.34
2022-10-09T22:37:47.879Z,100835.81
2022-10-09T22:40:15.880Z,100838.78
2022-10-09T22:42:45.261Z,100847.25
2022-10-09T22:45:13.244Z,100836.63
2022-10-09T22:47:41.229Z,100836.84
2022-10-09T22:50:10.095Z,100844.03
2022-10-09T22:52:38.425Z,100839.13
2022-10-09T22:55:07.568Z,100848.03
2022-10-09T22:57:35.549Z,100840.63
2022-10-09T23:00:06.601Z,100834.31
2022-10-09T23:02:34.615Z,100843.31
2022-10-09T23:05:02.692Z,100847.88
2022-10-09T23:07:30.675Z,100849.94
2022-10-09T23:09:58.661Z,100852.56
2022-10-09T23:12:26.702Z,100856.22
2022-10-09T23:14:55.161Z,100853.69
2022-10-09T23:17:24.534Z,100859.19
2022-10-09T23:19:52.511Z,100862.69
2022-10-09T23:22:20.476Z,100858.13
2022-10-09T23:24:48.455Z,100861.34
2022-10-09T23:27:16.436Z,100865.50
2022-10-09T23:29:44.443Z,100862.44
2022-10-09T23:32:12.447Z,100858.69
2022-10-09T23:34:41.859Z,100853.00
2022-10-09T23:37:09.852Z,100863.25
2022-10-09T23:39:37.907Z,100858.28
2022-10-09T23:42:06.051Z,100856.72
2022-10-09T23:44:34.064Z,100855.69
2022-10-09T23:47:02.082Z,100859.88
2022-10-09T23:49:30.054Z,100858.94
2022-10-09T23:51:59.464Z,100862.72
2022-10-09T23:54:27.426Z,100846.88
2022-10-09T23:56:55.590Z,100849.66
2022-10-09T23:59:23.574Z,100860.00
